Time;durP1;ratioP1;P1;durP2;ratioP2;P2;SDS_P1;SDS_P2;PMS_P1;PMS_P2;Temp;Humidity;BMP_temperature;BMP_pressure;BME280_temperature;BME280_humidity;BME280_pressure;Samples;Min_cycle;Max_cycle;Signal;HPM_P1;HPM_P2
2022/07/26 00:01:42;;;;;;;;;;;28.70;49.40;;;;;;5001582;28;20027;-72
2022/07/26 00:04:08;;;;;;;;;;;28.70;49.40;;;;;;5003320;28;19925;-71
2022/07/26 00:06:33;;;;;;;;;;;28.70;49.40;;;;;;5011424;28;20314;-67
2022/07/26 00:08:59;;;;;;;;;;;28.70;49.40;;;;;;5000738;28;20348;-64
2022/07/26 00:11:25;;;;;;;;;;;28.70;49.40;;;;;;5002773;28;19910;-66
2022/07/26 00:13:51;;;;;;;;;;;28.70;49.40;;;;;;5002816;28;20408;-65
2022/07/26 00:16:17;;;;;;;;;;;28.70;49.40;;;;;;5004323;28;19960;-64
2022/07/26 00:18:42;;;;;;;;;;;28.70;49.40;;;;;;5009770;28;19947;-72
2022/07/26 00:21:08;;;;;;;;;;;28.70;49.40;;;;;;5001581;28;19987;-72
2022/07/26 00:23:34;;;;;;;;;;;28.70;49.40;;;;;;5002978;28;19960;-67
2022/07/26 00:25:59;;;;;;;;;;;28.70;49.30;;;;;;5011247;28;19917;-66
2022/07/26 00:28:25;;;;;;;;;;;28.70;49.30;;;;;;5004034;28;20797;-65
2022/07/26 00:30:50;;;;;;;;;;;28.70;49.30;;;;;;5001918;28;19921;-70
2022/07/26 00:33:16;;;;;;;;;;;28.70;49.30;;;;;;5002162;28;19917;-67
2022/07/26 00:35:41;;;;;;;;;;;28.70;49.30;;;;;;4999669;28;19917;-67
2022/07/26 00:38:07;;;;;;;;;;;28.70;49.30;;;;;;5003294;28;20392;-67
2022/07/26 00:40:33;;;;;;;;;;;28.70;49.30;;;;;;5010816;28;19914;-67
2022/07/26 00:42:58;;;;;;;;;;;28.70;49.30;;;;;;5002759;28;19918;-71
2022/07/26 00:45:24;;;;;;;;;;;28.70;49.30;;;;;;5005382;28;19960;-72
2022/07/26 00:47:49;;;;;;;;;;;28.70;49.30;;;;;;5004201;28;19928;-66
2022/07/26 00:50:16;;;;;;;;;;;28.70;49.30;;;;;;5001111;28;19925;-72
2022/07/26 00:52:42;;;;;;;;;;;28.70;49.30;;;;;;4998534;28;20036;-72
2022/07/26 00:55:08;;;;;;;;;;;28.70;49.30;;;;;;4999894;28;19921;-68
2022/07/26 00:57:34;;;;;;;;;;;28.70;49.30;;;;;;5001568;28;19932;-69
2022/07/26 01:00:01;;;;;;;;;;;28.70;49.30;;;;;;5005119;28;19924;-72
2022/07/26 01:02:27;;;;;;;;;;;28.70;49.30;;;;;;4999374;28;20020;-65
2022/07/26 01:04:52;;;;;;;;;;;28.70;49.30;;;;;;5002685;28;20346;-67
2022/07/26 01:07:18;;;;;;;;;;;28.70;49.20;;;;;;4999701;28;19985;-71
2022/07/26 01:09:43;;;;;;;;;;;28.70;49.20;;;;;;5000833;28;20381;-72
2022/07/26 01:12:09;;;;;;;;;;;28.70;49.20;;;;;;4999242;28;19947;-71
2022/07/26 01:14:34;;;;;;;;;;;28.70;49.20;;;;;;5013274;28;19913;-71
2022/07/26 01:17:00;;;;;;;;;;;28.70;49.20;;;;;;5001729;28;20005;-71
2022/07/26 01:19:25;;;;;;;;;;;28.70;49.20;;;;;;5002646;28;19963;-66
2022/07/26 01:21:51;;;;;;;;;;;28.70;49.20;;;;;;4999651;28;19952;-65
2022/07/26 01:24:17;;;;;;;;;;;28.60;49.10;;;;;;5007556;28;19926;-67
2022/07/26 01:26:42;;;;;;;;;;;28.70;49.20;;;;;;4999955;28;20425;-66
2022/07/26 01:29:08;;;;;;;;;;;28.70;49.20;;;;;;5010167;28;19913;-72
2022/07/26 01:31:34;;;;;;;;;;;28.70;49.20;;;;;;5000554;28;19927;-67
2022/07/26 01:33:59;;;;;;;;;;;28.70;49.20;;;;;;5000001;28;20260;-67
2022/07/26 01:36:25;;;;;;;;;;;28.60;49.10;;;;;;5001619;28;19918;-65
2022/07/26 01:38:51;;;;;;;;;;;28.70;49.10;;;;;;4999643;28;20004;-64
2022/07/26 01:41:16;;;;;;;;;;;28.70;49.20;;;;;;5000045;28;19925;-70
2022/07/26 01:43:42;;;;;;;;;;;28.60;49.10;;;;;;5010562;28;20343;-66
2022/07/26 01:46:08;;;;;;;;;;;28.60;49.10;;;;;;5001253;28;20035;-67
2022/07/26 01:48:34;;;;;;;;;;;28.60;49.10;;;;;;4998381;28;20053;-67
2022/07/26 01:50:59;;;;;;;;;;;28.60;49.10;;;;;;5000309;28;19916;-70
2022/07/26 01:53:25;;;;;;;;;;;28.60;49.10;;;;;;4998752;28;19913;-70
2022/07/26 01:55:51;;;;;;;;;;;28.60;49.10;;;;;;4999671;28;19913;-67
2022/07/26 01:58:16;;;;;;;;;;;28.60;49.10;;;;;;5001377;28;19921;-73
2022/07/26 02:00:42;;;;;;;;;;;28.60;49.10;;;;;;5000925;28;20407;-71
2022/07/26 02:03:08;;;;;;;;;;;28.60;49.10;;;;;;4998882;28;20317;-66
2022/07/26 02:05:33;;;;;;;;;;;28.60;49.00;;;;;;5001448;28;20362;-66
2022/07/26 02:07:59;;;;;;;;;;;28.60;49.10;;;;;;4999671;28;19914;-67
2022/07/26 02:10:59;;;;;;;;;;;28.60;49.10;;;;;;4998874;28;19918;-65
2022/07/26 02:13:11;;;;;;;;;;;28.60;49.00;;;;;;4999216;28;20012;-70
2022/07/26 02:15:37;;;;;;;;;;;28.60;49.00;;;;;;5008108;28;19913;-72
2022/07/26 02:18:02;;;;;;;;;;;28.60;49.00;;;;;;5001560;28;19990;-72
2022/07/26 02:20:30;;;;;;;;;;;28.60;49.00;;;;;;5002180;28;20333;-66
2022/07/26 02:22:55;;;;;;;;;;;28.60;49.00;;;;;;4999792;28;20290;-72
2022/07/26 02:25:21;;;;;;;;;;;28.60;49.00;;;;;;4998804;28;19925;-68
2022/07/26 02:27:46;;;;;;;;;;;28.60;49.00;;;;;;5000678;28;20003;-72
2022/07/26 02:30:12;;;;;;;;;;;28.60;49.00;;;;;;5001405;28;19917;-70
2022/07/26 02:32:50;;;;;;;;;;;28.60;49.00;;;;;;5010013;28;20301;-71
2022/07/26 02:35:15;;;;;;;;;;;28.60;49.00;;;;;;5008449;28;19992;-68
2022/07/26 02:37:41;;;;;;;;;;;28.60;49.00;;;;;;5001464;28;20039;-65
2022/07/26 02:40:07;;;;;;;;;;;28.60;48.90;;;;;;4997969;28;19976;-67
2022/07/26 02:42:32;;;;;;;;;;;28.60;48.90;;;;;;5013451;28;19917;-71
2022/07/26 02:44:58;;;;;;;;;;;28.60;48.90;;;;;;4999957;28;19928;-67
2022/07/26 02:47:24;;;;;;;;;;;28.60;48.90;;;;;;4999696;28;19929;-72
2022/07/26 02:49:49;;;;;;;;;;;28.60;48.90;;;;;;5000292;28;19916;-67
2022/07/26 02:52:14;;;;;;;;;;;28.60;48.90;;;;;;4997930;28;19915;-64
2022/07/26 02:54:40;;;;;;;;;;;28.60;48.90;;;;;;4995961;28;19944;-70
2022/07/26 02:57:05;;;;;;;;;;;28.60;48.90;;;;;;5006309;28;20338;-68
2022/07/26 02:59:31;;;;;;;;;;;28.60;48.90;;;;;;4999913;28;20017;-69
2022/07/26 03:01:57;;;;;;;;;;;28.60;48.80;;;;;;4999118;28;19952;-70
2022/07/26 03:04:23;;;;;;;;;;;28.60;48.90;;;;;;4999001;28;19968;-70
2022/07/26 03:06:48;;;;;;;;;;;28.60;48.80;;;;;;5004621;28;19917;-66
2022/07/26 03:09:14;;;;;;;;;;;28.60;48.90;;;;;;4998346;28;19964;-70
2022/07/26 03:11:39;;;;;;;;;;;28.60;48.80;;;;;;5005807;28;20388;-66
2022/07/26 03:14:05;;;;;;;;;;;28.60;48.80;;;;;;4999191;28;19960;-66
2022/07/26 03:16:30;;;;;;;;;;;28.60;48.80;;;;;;4999385;28;19918;-69
2022/07/26 03:18:56;;;;;;;;;;;28.60;48.80;;;;;;5001944;28;20338;-69
2022/07/26 03:21:22;;;;;;;;;;;28.60;48.80;;;;;;5004258;28;20262;-66
2022/07/26 03:23:47;;;;;;;;;;;28.60;48.80;;;;;;4996826;28;19932;-71
2022/07/26 03:26:14;;;;;;;;;;;28.60;48.80;;;;;;4997434;28;19917;-67
2022/07/26 03:28:41;;;;;;;;;;;28.60;48.80;;;;;;5001839;28;19972;-71
2022/07/26 03:31:07;;;;;;;;;;;28.60;48.80;;;;;;5012366;28;21352;-64
2022/07/26 03:33:35;;;;;;;;;;;28.60;48.80;;;;;;5012931;28;20022;-71
2022/07/26 03:36:01;;;;;;;;;;;28.50;47.50;;;;;;5002651;28;19924;-71
2022/07/26 03:38:26;;;;;;;;;;;28.50;46.50;;;;;;5011119;28;19917;-67
2022/07/26 03:40:52;;;;;;;;;;;28.50;46.00;;;;;;5010675;28;20163;-68
2022/07/26 03:43:18;;;;;;;;;;;28.40;45.60;;;;;;5007765;28;19917;-70
2022/07/26 03:45:44;;;;;;;;;;;28.40;45.30;;;;;;5005483;28;19917;-67
2022/07/26 03:48:09;;;;;;;;;;;28.30;45.00;;;;;;5005311;28;20329;-68
2022/07/26 03:50:35;;;;;;;;;;;28.30;44.90;;;;;;5006367;28;20263;-72
2022/07/26 03:53:00;;;;;;;;;;;28.20;44.80;;;;;;5004711;28;20407;-67
2022/07/26 03:58:10;;;;;;;;;;;28.20;44.50;;;;;;5005932;28;19984;-67
2022/07/26 04:00:36;;;;;;;;;;;28.10;44.10;;;;;;5013187;28;19925;-67
2022/07/26 04:03:04;;;;;;;;;;;28.10;44.10;;;;;;5005616;28;19956;-72
2022/07/26 04:05:30;;;;;;;;;;;28.10;43.90;;;;;;5008356;28;19920;-66
2022/07/26 04:07:55;;;;;;;;;;;28.00;43.50;;;;;;5008005;28;19925;-70
2022/07/26 04:10:21;;;;;;;;;;;28.00;43.80;;;;;;5008012;28;19918;-69
2022/07/26 04:12:48;;;;;;;;;;;27.90;44.30;;;;;;5006099;28;19952;-65
2022/07/26 04:15:15;;;;;;;;;;;27.90;44.40;;;;;;5014103;28;20534;-64
2022/07/26 04:17:41;;;;;;;;;;;27.90;44.20;;;;;;5003669;28;20519;-71
2022/07/26 04:20:08;;;;;;;;;;;27.90;44.50;;;;;;5007636;28;19917;-67
2022/07/26 04:22:37;;;;;;;;;;;27.90;44.10;;;;;;5002349;28;20337;-72
2022/07/26 04:25:03;;;;;;;;;;;27.90;44.10;;;;;;5004893;28;20448;-71
2022/07/26 04:27:28;;;;;;;;;;;27.90;44.10;;;;;;5007214;28;20317;-71
2022/07/26 04:29:54;;;;;;;;;;;27.80;43.90;;;;;;5014113;28;19928;-69
2022/07/26 04:32:20;;;;;;;;;;;27.70;44.50;;;;;;5005311;28;20441;-68
2022/07/26 04:34:45;;;;;;;;;;;27.80;43.90;;;;;;5006315;28;19918;-67
2022/07/26 04:37:11;;;;;;;;;;;27.70;43.70;;;;;;5001465;28;20520;-67
2022/07/26 04:39:36;;;;;;;;;;;27.70;43.10;;;;;;5004021;28;19917;-68
2022/07/26 04:42:02;;;;;;;;;;;27.70;43.40;;;;;;5000719;28;19921;-71
2022/07/26 04:44:28;;;;;;;;;;;27.60;43.10;;;;;;4998320;28;19953;-69
2022/07/26 04:46:56;;;;;;;;;;;27.60;43.40;;;;;;5001370;28;19927;-66
2022/07/26 04:49:22;;;;;;;;;;;27.60;43.50;;;;;;5007164;28;20386;-72
2022/07/26 04:51:47;;;;;;;;;;;27.60;43.60;;;;;;4997364;28;19921;-72
2022/07/26 04:54:14;;;;;;;;;;;27.60;43.70;;;;;;5006216;28;19913;-71
2022/07/26 04:56:40;;;;;;;;;;;27.50;43.80;;;;;;5009023;28;19918;-67
2022/07/26 04:59:05;;;;;;;;;;;27.50;43.90;;;;;;5002383;28;20223;-73
2022/07/26 05:01:31;;;;;;;;;;;27.50;44.00;;;;;;5002435;28;19918;-67
2022/07/26 05:03:56;;;;;;;;;;;27.50;44.20;;;;;;5001786;28;19918;-65
2022/07/26 05:06:22;;;;;;;;;;;27.50;44.30;;;;;;4998427;28;19948;-72
2022/07/26 05:08:47;;;;;;;;;;;27.50;44.40;;;;;;4997868;28;20650;-72
2022/07/26 05:11:13;;;;;;;;;;;27.50;44.50;;;;;;5004530;28;19917;-67
2022/07/26 05:13:39;;;;;;;;;;;27.50;44.60;;;;;;5008156;28;19914;-67
2022/07/26 05:16:04;;;;;;;;;;;27.50;44.70;;;;;;5000267;28;20223;-66
2022/07/26 05:18:30;;;;;;;;;;;27.50;44.80;;;;;;5002221;28;20555;-65
2022/07/26 05:20:56;;;;;;;;;;;27.50;44.80;;;;;;5011096;28;19992;-67
2022/07/26 05:23:21;;;;;;;;;;;27.50;44.90;;;;;;5001379;28;19952;-72
2022/07/26 05:25:47;;;;;;;;;;;27.50;45.00;;;;;;5001193;28;19930;-70
2022/07/26 05:28:13;;;;;;;;;;;27.50;45.00;;;;;;5002648;28;19929;-67
2022/07/26 05:30:38;;;;;;;;;;;27.50;45.10;;;;;;5001167;28;19925;-72
2022/07/26 05:33:04;;;;;;;;;;;27.50;45.20;;;;;;5001413;28;19917;-72
2022/07/26 05:35:29;;;;;;;;;;;27.50;45.20;;;;;;5001368;28;19917;-70
2022/07/26 05:37:55;;;;;;;;;;;27.50;45.30;;;;;;4999350;28;19917;-67
2022/07/26 05:40:21;;;;;;;;;;;27.60;45.40;;;;;;5011021;28;19921;-66
2022/07/26 05:42:46;;;;;;;;;;;27.50;45.40;;;;;;5010362;28;19918;-67
2022/07/26 05:45:12;;;;;;;;;;;27.60;45.50;;;;;;5012662;28;19917;-73
2022/07/26 05:47:38;;;;;;;;;;;27.60;45.50;;;;;;5001333;28;19926;-72
2022/07/26 05:50:04;;;;;;;;;;;27.50;45.50;;;;;;5001293;28;19917;-68
2022/07/26 05:52:29;;;;;;;;;;;27.50;45.60;;;;;;5000185;28;19917;-65
2022/07/26 05:54:55;;;;;;;;;;;27.50;45.60;;;;;;5000262;28;19921;-68
2022/07/26 05:57:20;;;;;;;;;;;27.60;45.70;;;;;;5001465;28;19913;-70
2022/07/26 05:59:46;;;;;;;;;;;27.60;45.80;;;;;;5002196;28;19909;-73
2022/07/26 06:02:11;;;;;;;;;;;27.60;45.80;;;;;;4999783;28;19924;-67
2022/07/26 06:04:37;;;;;;;;;;;27.60;45.90;;;;;;4999878;28;20459;-73
2022/07/26 06:07:02;;;;;;;;;;;27.60;45.90;;;;;;4998673;28;19941;-66
2022/07/26 06:09:28;;;;;;;;;;;27.50;45.80;;;;;;5000711;28;20260;-72
2022/07/26 06:11:53;;;;;;;;;;;27.60;45.90;;;;;;4998918;28;19921;-69
2022/07/26 06:14:19;;;;;;;;;;;27.50;45.90;;;;;;5000836;28;19924;-65
2022/07/26 06:16:45;;;;;;;;;;;27.60;46.00;;;;;;5001486;28;20463;-66
2022/07/26 06:19:10;;;;;;;;;;;27.60;46.00;;;;;;5001614;28;19961;-65
2022/07/26 06:21:36;;;;;;;;;;;27.60;46.00;;;;;;5000307;28;20000;-69
2022/07/26 06:24:01;;;;;;;;;;;27.60;46.10;;;;;;4999004;28;19976;-71
2022/07/26 06:26:27;;;;;;;;;;;27.50;46.10;;;;;;5000574;28;19921;-66
2022/07/26 06:28:52;;;;;;;;;;;27.60;46.20;;;;;;5006423;28;19921;-70
2022/07/26 06:31:18;;;;;;;;;;;27.60;46.70;;;;;;5000523;28;19917;-72
2022/07/26 06:33:43;;;;;;;;;;;27.60;46.20;;;;;;5000780;28;20291;-66
2022/07/26 06:36:09;;;;;;;;;;;27.60;46.20;;;;;;4999655;28;19917;-67
2022/07/26 06:38:34;;;;;;;;;;;27.60;46.20;;;;;;4998806;28;19917;-72
2022/07/26 06:41:00;;;;;;;;;;;27.50;46.20;;;;;;5002333;28;20342;-70
2022/07/26 06:43:25;;;;;;;;;;;27.50;46.20;;;;;;4998797;28;19917;-67
2022/07/26 06:45:51;;;;;;;;;;;27.60;46.30;;;;;;4998059;28;19925;-71
2022/07/26 06:48:16;;;;;;;;;;;27.60;46.40;;;;;;4999401;28;20473;-70
2022/07/26 06:50:42;;;;;;;;;;;27.50;46.30;;;;;;4998809;28;19991;-71
2022/07/26 06:53:07;;;;;;;;;;;27.60;46.40;;;;;;4997321;28;20275;-69
2022/07/26 06:55:33;;;;;;;;;;;27.50;46.30;;;;;;5004366;28;20009;-70
2022/07/26 06:57:58;;;;;;;;;;;27.60;46.40;;;;;;5002497;28;19913;-68
2022/07/26 07:00:24;;;;;;;;;;;27.60;46.40;;;;;;5001566;28;19918;-71
2022/07/26 07:02:49;;;;;;;;;;;27.60;46.40;;;;;;4998237;28;19974;-67
2022/07/26 07:05:15;;;;;;;;;;;27.60;46.40;;;;;;4999451;28;19917;-71
2022/07/26 07:07:40;;;;;;;;;;;27.60;46.50;;;;;;5003779;28;20013;-69
2022/07/26 07:10:06;;;;;;;;;;;27.60;46.50;;;;;;5007839;28;20004;-67
2022/07/26 07:12:32;;;;;;;;;;;27.60;46.50;;;;;;4996575;28;19920;-67
2022/07/26 07:14:57;;;;;;;;;;;27.50;46.40;;;;;;4999376;28;19957;-67
2022/07/26 07:17:23;;;;;;;;;;;27.60;46.50;;;;;;4999936;28;20430;-68
2022/07/26 07:19:49;;;;;;;;;;;27.60;46.50;;;;;;5001495;28;19917;-71
2022/07/26 07:22:14;;;;;;;;;;;27.60;46.50;;;;;;4999062;28;19917;-71
2022/07/26 07:24:40;;;;;;;;;;;27.60;46.60;;;;;;4997890;28;21453;-66
2022/07/26 07:27:06;;;;;;;;;;;27.60;46.50;;;;;;4998788;28;19917;-67
2022/07/26 07:29:32;;;;;;;;;;;27.60;46.60;;;;;;5010972;28;19932;-71
2022/07/26 07:32:00;;;;;;;;;;;27.60;46.60;;;;;;4999406;28;19992;-66
2022/07/26 07:34:26;;;;;;;;;;;27.60;46.60;;;;;;4997734;28;19918;-68
2022/07/26 07:36:52;;;;;;;;;;;27.60;46.60;;;;;;5005997;28;19918;-67
2022/07/26 07:39:18;;;;;;;;;;;27.60;46.60;;;;;;5005724;28;20396;-68
2022/07/26 07:41:44;;;;;;;;;;;27.60;46.70;;;;;;4997207;28;19925;-66
2022/07/26 07:44:10;;;;;;;;;;;27.60;46.60;;;;;;5000175;28;20356;-65
2022/07/26 07:46:35;;;;;;;;;;;27.60;46.60;;;;;;5008335;28;20011;-65
2022/07/26 07:49:01;;;;;;;;;;;27.60;46.60;;;;;;5000100;28;20437;-67
2022/07/26 07:51:26;;;;;;;;;;;27.60;46.60;;;;;;4997988;28;20285;-71
2022/07/26 07:53:52;;;;;;;;;;;27.60;46.60;;;;;;5009651;28;19916;-65
2022/07/26 07:56:18;;;;;;;;;;;27.60;46.60;;;;;;4997899;28;20020;-68
2022/07/26 07:58:43;;;;;;;;;;;27.60;46.60;;;;;;4999235;28;20285;-66
2022/07/26 08:01:09;;;;;;;;;;;27.60;46.60;;;;;;4998443;28;19921;-70
2022/07/26 08:03:34;;;;;;;;;;;27.60;46.60;;;;;;4999586;28;20008;-72
2022/07/26 08:06:01;;;;;;;;;;;27.60;46.60;;;;;;4997500;28;19918;-67
2022/07/26 08:08:26;;;;;;;;;;;27.60;46.60;;;;;;5005443;28;20203;-72
2022/07/26 08:10:52;;;;;;;;;;;27.60;46.70;;;;;;5006371;28;19949;-70
2022/07/26 08:13:18;;;;;;;;;;;27.60;46.60;;;;;;5001265;28;20286;-72
2022/07/26 08:15:44;;;;;;;;;;;27.60;46.70;;;;;;5002628;28;19920;-66
2022/07/26 08:18:10;;;;;;;;;;;27.60;46.70;;;;;;5017328;28;19921;-73
2022/07/26 08:20:35;;;;;;;;;;;27.60;46.70;;;;;;5001197;28;19925;-70
2022/07/26 08:23:00;;;;;;;;;;;27.60;46.70;;;;;;5004669;28;19951;-68
2022/07/26 08:25:26;;;;;;;;;;;27.60;46.70;;;;;;5002983;28;19917;-71
2022/07/26 08:27:52;;;;;;;;;;;27.60;46.70;;;;;;5010156;28;20390;-67
2022/07/26 08:30:17;;;;;;;;;;;27.60;46.70;;;;;;5002733;28;19964;-69
2022/07/26 08:32:43;;;;;;;;;;;27.60;46.80;;;;;;5001651;28;19921;-69
2022/07/26 08:35:08;;;;;;;;;;;27.60;46.80;;;;;;5004439;28;19923;-72
2022/07/26 08:37:34;;;;;;;;;;;27.60;46.80;;;;;;5000973;28;19916;-68
2022/07/26 08:39:59;;;;;;;;;;;27.60;46.80;;;;;;5010973;28;20344;-72
2022/07/26 08:42:25;;;;;;;;;;;27.60;46.90;;;;;;5001105;28;20409;-69
2022/07/26 08:44:51;;;;;;;;;;;27.60;46.90;;;;;;5012367;28;20070;-73
2022/07/26 08:47:18;;;;;;;;;;;27.60;46.90;;;;;;5004388;28;19924;-65
2022/07/26 08:49:44;;;;;;;;;;;27.60;46.90;;;;;;5001454;28;20283;-72
2022/07/26 08:52:11;;;;;;;;;;;27.60;46.90;;;;;;5009011;28;19913;-72
2022/07/26 08:54:40;;;;;;;;;;;27.60;46.90;;;;;;5003637;28;19920;-66
2022/07/26 08:57:06;;;;;;;;;;;27.60;46.90;;;;;;5009618;28;19914;-66
2022/07/26 08:59:31;;;;;;;;;;;27.60;46.90;;;;;;5003575;28;19924;-67
2022/07/26 09:01:57;;;;;;;;;;;27.60;46.90;;;;;;5000451;28;19965;-70
2022/07/26 09:04:25;;;;;;;;;;;27.60;46.90;;;;;;5002830;28;19993;-68
2022/07/26 09:07:00;;;;;;;;;;;27.60;47.00;;;;;;5001094;28;19917;-66
2022/07/26 09:09:29;;;;;;;;;;;27.60;47.00;;;;;;5003582;28;19917;-72
2022/07/26 09:11:55;;;;;;;;;;;27.60;46.90;;;;;;5001896;28;19928;-73
2022/07/26 09:14:21;;;;;;;;;;;27.60;47.00;;;;;;5004721;28;20419;-72
2022/07/26 09:16:57;;;;;;;;;;;27.60;47.00;;;;;;5003122;28;19921;-72
2022/07/26 09:19:23;;;;;;;;;;;27.60;47.00;;;;;;5004569;28;20011;-65
2022/07/26 09:21:54;;;;;;;;;;;27.60;47.00;;;;;;5007935;28;19917;-67
2022/07/26 09:24:29;;;;;;;;;;;27.60;47.00;;;;;;5000661;28;19921;-66
2022/07/26 09:26:55;;;;;;;;;;;27.60;47.00;;;;;;5001622;28;20318;-72
2022/07/26 09:29:21;;;;;;;;;;;27.60;47.00;;;;;;5007639;28;19948;-70
2022/07/26 09:31:46;;;;;;;;;;;27.60;47.00;;;;;;5000806;28;19921;-67
2022/07/26 09:34:22;;;;;;;;;;;27.60;47.00;;;;;;5004518;28;19928;-68
2022/07/26 09:36:52;;;;;;;;;;;27.60;47.00;;;;;;4999536;28;20099;-67
2022/07/26 09:39:17;;;;;;;;;;;27.70;47.00;;;;;;5011621;28;19918;-71
2022/07/26 09:41:43;;;;;;;;;;;27.70;47.10;;;;;;5001905;28;19920;-71
2022/07/26 09:44:22;;;;;;;;;;;27.60;47.00;;;;;;5003303;28;19916;-73
2022/07/26 09:46:55;;;;;;;;;;;27.60;47.00;;;;;;5000897;28;19917;-65
2022/07/26 09:49:21;;;;;;;;;;;27.60;47.00;;;;;;5002668;28;19921;-70
2022/07/26 09:51:48;;;;;;;;;;;27.70;47.10;;;;;;4999460;28;19921;-71
2022/07/26 09:54:32;;;;;;;;;;;27.70;47.00;;;;;;5001818;28;19918;-71
2022/07/26 09:56:58;;;;;;;;;;;27.60;46.90;;;;;;5000326;28;19939;-72
2022/07/26 09:59:25;;;;;;;;;;;27.70;47.00;;;;;;5000797;28;19917;-67
2022/07/26 10:01:52;;;;;;;;;;;27.70;47.00;;;;;;5001669;28;19918;-72
2022/07/26 10:04:18;;;;;;;;;;;27.70;47.00;;;;;;5011056;28;19917;-65
2022/07/26 10:06:44;;;;;;;;;;;27.60;46.90;;;;;;4999783;28;19943;-67
2022/07/26 10:09:10;;;;;;;;;;;27.70;47.00;;;;;;5003821;28;19921;-66
2022/07/26 10:11:39;;;;;;;;;;;27.70;47.00;;;;;;5014369;28;19918;-65
2022/07/26 10:14:23;;;;;;;;;;;27.70;47.00;;;;;;4999516;28;20400;-72
2022/07/26 10:16:49;;;;;;;;;;;27.70;47.00;;;;;;4998282;28;19925;-69
2022/07/26 10:19:34;;;;;;;;;;;27.70;47.00;;;;;;5000529;28;19935;-66
2022/07/26 10:22:35;;;;;;;;;;;27.70;47.00;;;;;;4996195;28;20486;-72
2022/07/26 10:25:15;;;;;;;;;;;27.70;47.00;;;;;;4973285;28;20373;-70
2022/07/26 10:27:42;;;;;;;;;;;27.70;47.00;;;;;;5003237;28;19979;-72
2022/07/26 10:30:22;;;;;;;;;;;27.70;47.00;;;;;;5002967;28;19917;-69
2022/07/26 10:32:58;;;;;;;;;;;27.70;47.00;;;;;;4997824;28;20031;-71
2022/07/26 10:35:34;;;;;;;;;;;27.70;47.00;;;;;;5000560;28;19922;-69
2022/07/26 10:38:01;;;;;;;;;;;27.70;47.00;;;;;;5010883;28;20016;-69
2022/07/26 10:40:30;;;;;;;;;;;27.70;47.00;;;;;;4998935;28;19922;-66
2022/07/26 10:43:07;;;;;;;;;;;27.70;47.00;;;;;;5006171;28;20297;-68
2022/07/26 10:45:33;;;;;;;;;;;27.70;47.00;;;;;;4999150;28;19929;-70
2022/07/26 10:48:18;;;;;;;;;;;27.70;46.90;;;;;;5001337;28;19928;-69
2022/07/26 10:50:45;;;;;;;;;;;27.70;47.00;;;;;;4999972;28;19921;-69
2022/07/26 10:53:16;;;;;;;;;;;27.70;47.00;;;;;;5002705;28;20004;-71
2022/07/26 10:55:55;;;;;;;;;;;27.70;47.00;;;;;;4998502;28;19917;-66
2022/07/26 10:58:22;;;;;;;;;;;27.70;47.00;;;;;;5000097;28;19920;-71
2022/07/26 11:01:01;;;;;;;;;;;27.70;46.90;;;;;;4997565;28;19921;-67
2022/07/26 11:03:40;;;;;;;;;;;27.70;47.00;;;;;;5000986;28;19917;-66
2022/07/26 11:06:08;;;;;;;;;;;27.70;47.00;;;;;;4998867;28;19917;-67
2022/07/26 11:08:34;;;;;;;;;;;27.70;47.00;;;;;;4999148;28;19918;-72
2022/07/26 11:10:59;;;;;;;;;;;27.70;46.90;;;;;;4998174;28;19921;-68
2022/07/26 11:13:24;;;;;;;;;;;27.70;46.90;;;;;;5002776;28;20013;-66
2022/07/26 11:15:53;;;;;;;;;;;27.70;47.00;;;;;;5006104;28;19969;-68
2022/07/26 11:18:23;;;;;;;;;;;27.70;47.00;;;;;;5018163;28;19999;-66
2022/07/26 11:20:52;;;;;;;;;;;27.70;47.00;;;;;;5003758;28;19979;-67
2022/07/26 11:23:32;;;;;;;;;;;27.70;46.90;;;;;;4998765;28;19921;-67
2022/07/26 11:26:06;;;;;;;;;;;27.70;46.90;;;;;;4999536;28;19941;-67
2022/07/26 11:28:45;;;;;;;;;;;27.70;46.90;;;;;;5004147;28;19952;-73
2022/07/26 11:31:11;;;;;;;;;;;27.70;46.90;;;;;;5002624;28;19983;-72
2022/07/26 11:33:41;;;;;;;;;;;27.70;46.90;;;;;;5002101;28;19925;-65
2022/07/26 11:36:07;;;;;;;;;;;27.80;47.00;;;;;;4999710;28;19917;-66
2022/07/26 11:38:52;;;;;;;;;;;27.80;47.00;;;;;;5001026;28;20583;-70
2022/07/26 11:41:19;;;;;;;;;;;27.70;46.90;;;;;;5004251;28;19921;-68
2022/07/26 11:43:44;;;;;;;;;;;27.70;46.90;;;;;;5000864;28;19917;-66
2022/07/26 11:46:10;;;;;;;;;;;27.80;47.00;;;;;;5001371;28;19968;-71
2022/07/26 11:48:35;;;;;;;;;;;27.70;46.90;;;;;;5001556;28;20017;-66
2022/07/26 11:51:11;;;;;;;;;;;27.70;46.90;;;;;;5002274;28;19921;-64
2022/07/26 11:53:37;;;;;;;;;;;27.80;46.90;;;;;;5004841;28;20426;-71
2022/07/26 11:56:10;;;;;;;;;;;27.80;46.90;;;;;;5002601;28;20397;-67
2022/07/26 11:58:37;;;;;;;;;;;27.80;47.00;;;;;;5004174;28;19944;-67
2022/07/26 12:01:03;;;;;;;;;;;27.80;46.90;;;;;;5001855;28;19937;-67
2022/07/26 12:03:29;;;;;;;;;;;27.80;46.90;;;;;;5002901;28;20498;-66
2022/07/26 12:06:07;;;;;;;;;;;27.80;46.80;;;;;;5005996;28;20000;-68
2022/07/26 12:08:45;;;;;;;;;;;27.80;46.90;;;;;;5003798;28;20312;-72
2022/07/26 12:11:11;;;;;;;;;;;27.80;46.90;;;;;;4999756;28;19963;-68
2022/07/26 12:13:49;;;;;;;;;;;27.80;46.90;;;;;;5002559;28;20334;-67
2022/07/26 12:16:34;;;;;;;;;;;27.80;46.90;;;;;;5004734;28;20187;-73
2022/07/26 12:18:59;;;;;;;;;;;27.80;47.40;;;;;;5009531;28;19952;-71
2022/07/26 12:21:38;;;;;;;;;;;27.80;46.80;;;;;;5000815;28;19949;-68
2022/07/26 12:24:04;;;;;;;;;;;27.80;46.80;;;;;;5000969;28;20076;-73
2022/07/26 12:26:29;;;;;;;;;;;27.80;46.80;;;;;;5000170;28;20394;-68
2022/07/26 12:28:56;;;;;;;;;;;27.80;46.80;;;;;;5009395;28;20639;-69
2022/07/26 12:31:32;;;;;;;;;;;27.80;46.80;;;;;;5002404;28;19999;-72
2022/07/26 12:33:58;;;;;;;;;;;27.80;46.90;;;;;;5002400;28;20412;-72
2022/07/26 12:36:24;;;;;;;;;;;27.80;46.90;;;;;;5009954;28;19917;-72
2022/07/26 12:38:54;;;;;;;;;;;27.90;46.90;;;;;;5001642;28;19921;-72
2022/07/26 12:41:33;;;;;;;;;;;27.90;46.90;;;;;;5007798;28;19917;-69
2022/07/26 12:43:59;;;;;;;;;;;27.80;46.80;;;;;;5009641;28;20107;-65
2022/07/26 12:46:25;;;;;;;;;;;27.90;46.90;;;;;;5004556;28;20096;-73
2022/07/26 12:48:50;;;;;;;;;;;27.90;46.90;;;;;;5003606;28;20618;-67
2022/07/26 12:51:16;;;;;;;;;;;27.90;46.90;;;;;;5011209;28;20019;-67
2022/07/26 12:53:41;;;;;;;;;;;27.80;46.80;;;;;;5001882;28;20000;-71
2022/07/26 12:56:07;;;;;;;;;;;27.80;46.80;;;;;;5000436;28;20289;-66
2022/07/26 12:58:32;;;;;;;;;;;27.80;46.90;;;;;;5003837;28;19921;-72
2022/07/26 13:00:58;;;;;;;;;;;27.90;46.90;;;;;;5001315;28;19932;-73
2022/07/26 13:03:24;;;;;;;;;;;27.90;46.90;;;;;;4999869;28;19917;-72
2022/07/26 13:05:49;;;;;;;;;;;27.90;46.90;;;;;;5001692;28;19921;-69
2022/07/26 13:08:15;;;;;;;;;;;27.90;46.90;;;;;;5009231;28;19933;-66
2022/07/26 13:10:41;;;;;;;;;;;27.90;46.90;;;;;;4999004;28;19921;-67
2022/07/26 13:13:06;;;;;;;;;;;27.90;46.90;;;;;;4999595;28;20451;-72
2022/07/26 13:15:32;;;;;;;;;;;27.90;46.90;;;;;;5010919;28;19921;-66
2022/07/26 13:17:58;;;;;;;;;;;27.90;46.90;;;;;;4998839;28;20457;-65
2022/07/26 13:20:24;;;;;;;;;;;27.90;46.90;;;;;;4996702;28;19923;-68
2022/07/26 13:22:49;;;;;;;;;;;27.90;46.90;;;;;;5007956;28;19921;-64
2022/07/26 13:25:15;;;;;;;;;;;27.90;46.90;;;;;;4998920;28;19917;-69
2022/07/26 13:27:40;;;;;;;;;;;27.90;46.90;;;;;;5000105;28;19920;-66
2022/07/26 13:30:06;;;;;;;;;;;27.90;46.90;;;;;;5006819;28;19944;-68
2022/07/26 13:32:31;;;;;;;;;;;27.90;46.90;;;;;;5000264;28;20480;-73
2022/07/26 13:34:57;;;;;;;;;;;27.90;46.90;;;;;;4998686;28;19914;-68
2022/07/26 13:37:23;;;;;;;;;;;27.90;46.90;;;;;;4997218;28;19917;-64
2022/07/26 13:39:49;;;;;;;;;;;27.90;46.90;;;;;;5004640;28;19918;-69
2022/07/26 13:42:15;;;;;;;;;;;27.90;46.90;;;;;;4997985;28;19914;-73
2022/07/26 13:44:41;;;;;;;;;;;27.90;46.90;;;;;;5001468;28;20543;-66
2022/07/26 13:47:07;;;;;;;;;;;27.90;46.90;;;;;;5005764;28;20036;-68
2022/07/26 13:49:32;;;;;;;;;;;27.90;46.90;;;;;;4998115;28;19983;-68
2022/07/26 13:51:58;;;;;;;;;;;27.90;46.90;;;;;;4997113;28;19975;-71
2022/07/26 13:54:28;;;;;;;;;;;27.90;46.90;;;;;;5000147;28;19913;-68
2022/07/26 13:56:54;;;;;;;;;;;27.90;46.90;;;;;;4998503;28;19971;-72
2022/07/26 13:59:20;;;;;;;;;;;27.90;46.90;;;;;;5000568;28;19967;-65
2022/07/26 14:01:46;;;;;;;;;;;27.90;46.90;;;;;;5006862;28;19957;-65
2022/07/26 14:04:12;;;;;;;;;;;27.90;46.90;;;;;;4998439;28;20008;-65
2022/07/26 14:06:38;;;;;;;;;;;27.90;46.90;;;;;;4996932;28;20453;-71
2022/07/26 14:09:04;;;;;;;;;;;27.90;46.90;;;;;;4997684;28;19931;-69
2022/07/26 14:11:30;;;;;;;;;;;28.00;47.00;;;;;;4995868;28;19917;-67
2022/07/26 14:13:56;;;;;;;;;;;28.00;47.00;;;;;;4996283;28;19917;-72
2022/07/26 14:16:26;;;;;;;;;;;27.90;46.90;;;;;;5003570;28;19944;-70
2022/07/26 14:18:56;;;;;;;;;;;27.90;46.90;;;;;;4996091;28;19917;-72